createdAt,value
2022-12-15T00:00:13.326Z,16.42
2022-12-15T00:02:59.314Z,13.20
2022-12-15T00:05:49.898Z,13.48
2022-12-15T00:08:36.571Z,14.38
2022-12-15T00:11:23.405Z,13.07
2022-12-15T00:14:09.807Z,11.15
2022-12-15T00:16:56.018Z,12.98
2022-12-15T00:19:42.574Z,11.73
2022-12-15T00:22:28.797Z,10.05
2022-12-15T00:25:15.381Z,9.15
2022-12-15T00:28:01.623Z,10.15
2022-12-15T00:30:50.075Z,8.43
2022-12-15T00:33:36.770Z,9.98
2022-12-15T00:36:23.352Z,9.18
2022-12-15T00:38:51.130Z,7.80
2022-12-15T00:41:19.894Z,7.82
2022-12-15T00:43:48.034Z,8.07
2022-12-15T00:46:34.348Z,9.55
2022-12-15T00:49:02.280Z,10.10
2022-12-15T00:51:48.503Z,8.50
2022-12-15T00:54:35.009Z,11.38
2022-12-15T00:57:21.121Z,9.93
2022-12-15T01:00:07.671Z,9.30
2022-12-15T01:02:54.183Z,12.75
2022-12-15T01:05:40.474Z,10.00
2022-12-15T01:08:26.815Z,8.45
2022-12-15T01:11:13.316Z,8.65
2022-12-15T01:13:59.674Z,8.75
2022-12-15T01:16:46.154Z,7.70
2022-12-15T01:19:32.385Z,8.82
2022-12-15T01:22:00.090Z,8.73
2022-12-15T01:24:27.748Z,10.07
2022-12-15T01:26:55.456Z,7.72
2022-12-15T01:29:23.283Z,9.43
2022-12-15T01:31:50.930Z,9.55
2022-12-15T01:34:21.113Z,7.53
2022-12-15T01:36:48.764Z,7.40
2022-12-15T01:39:17.154Z,7.93
2022-12-15T01:41:44.811Z,9.95
2022-12-15T01:44:25.318Z,8.10
2022-12-15T01:46:57.059Z,7.40
2022-12-15T01:49:29.830Z,7.43
2022-12-15T01:52:01.529Z,6.55
2022-12-15T01:54:44.378Z,7.80
2022-12-15T01:57:22.608Z,7.32
2022-12-15T01:59:57.002Z,7.25
2022-12-15T02:02:27.851Z,8.38
2022-12-15T02:04:58.971Z,5.28
2022-12-15T02:07:27.396Z,7.05
2022-12-15T02:09:59.476Z,8.57
2022-12-15T02:12:42.579Z,6.90
2022-12-15T02:15:48.569Z,6.93
2022-12-15T02:18:34.901Z,7.80
2022-12-15T02:21:08.167Z,8.18
2022-12-15T02:23:57.535Z,6.90
2022-12-15T02:27:02.980Z,9.02
2022-12-15T02:29:42.951Z,6.80
2022-12-15T02:32:15.548Z,8.13
2022-12-15T02:34:46.721Z,8.60
2022-12-15T02:37:26.059Z,6.50
2022-12-15T02:39:53.826Z,7.75
2022-12-15T02:42:22.670Z,8.57
2022-12-15T02:44:55.337Z,8.85
2022-12-15T02:47:52.443Z,8.15
2022-12-15T02:50:35.545Z,8.35
2022-12-15T02:53:05.998Z,9.13
2022-12-15T02:55:50.378Z,8.70
2022-12-15T02:58:32.666Z,6.97
2022-12-15T03:01:29.112Z,11.80
2022-12-15T03:03:58.553Z,8.98
2022-12-15T03:06:28.018Z,7.65
2022-12-15T03:08:55.717Z,7.50
2022-12-15T03:11:23.856Z,8.50
2022-12-15T03:13:52.027Z,7.50
2022-12-15T03:16:19.702Z,6.97
2022-12-15T03:18:48.162Z,6.60
2022-12-15T03:21:16.036Z,9.00
2022-12-15T03:23:43.757Z,9.32
2022-12-15T03:26:11.460Z,10.65
2022-12-15T03:28:39.137Z,12.25
2022-12-15T03:31:07.038Z,8.57
2022-12-15T03:33:35.580Z,7.95
2022-12-15T03:36:03.462Z,6.37
2022-12-15T03:38:31.163Z,6.78
2022-12-15T03:40:58.836Z,8.88
2022-12-15T03:43:26.677Z,7.53
2022-12-15T03:45:54.388Z,7.93
2022-12-15T03:48:22.927Z,5.75
2022-12-15T03:50:51.299Z,5.53
2022-12-15T03:53:19.028Z,4.35
2022-12-15T03:55:46.698Z,5.72
2022-12-15T03:58:14.341Z,4.57
2022-12-15T04:00:42.064Z,5.62
2022-12-15T04:03:12.493Z,3.42
2022-12-15T04:05:40.418Z,4.12
2022-12-15T04:08:08.232Z,5.28
2022-12-15T04:10:36.690Z,3.53
2022-12-15T04:13:07.937Z,4.05
2022-12-15T04:15:37.480Z,4.30
2022-12-15T04:18:11.762Z,4.12
2022-12-15T04:20:40.189Z,4.57
2022-12-15T04:23:11.606Z,4.60
2022-12-15T04:25:58.181Z,4.20
2022-12-15T04:28:44.300Z,3.62
2022-12-15T04:31:36.305Z,5.75
2022-12-15T04:34:27.642Z,4.15
2022-12-15T04:37:14.210Z,3.75
2022-12-15T04:40:05.373Z,3.40
2022-12-15T04:42:53.321Z,2.87
2022-12-15T04:45:42.726Z,3.87
2022-12-15T04:48:29.895Z,4.00
2022-12-15T04:51:16.072Z,3.75
2022-12-15T04:54:04.286Z,3.35
2022-12-15T04:56:51.895Z,3.72
2022-12-15T04:59:38.202Z,4.28
2022-12-15T05:02:24.482Z,3.65
2022-12-15T05:05:10.866Z,3.50
2022-12-15T05:07:57.170Z,4.03
2022-12-15T05:10:43.411Z,3.53
2022-12-15T05:13:29.865Z,3.72
2022-12-15T05:16:16.767Z,3.78
2022-12-15T05:19:02.919Z,4.47
2022-12-15T05:21:49.022Z,3.58
2022-12-15T05:24:35.151Z,3.08
2022-12-15T05:27:21.716Z,5.12
2022-12-15T05:30:07.544Z,6.68
2022-12-15T05:32:35.299Z,4.40
2022-12-15T05:35:03.042Z,3.97
2022-12-15T05:37:30.756Z,4.10
2022-12-15T05:39:58.437Z,3.10
2022-12-15T05:42:26.226Z,2.40
2022-12-15T05:44:54.018Z,2.10
2022-12-15T05:47:21.680Z,2.30
2022-12-15T05:49:50.407Z,2.53
2022-12-15T05:52:18.477Z,1.90
2022-12-15T05:54:46.115Z,3.03
2022-12-15T05:57:13.690Z,2.65
2022-12-15T05:59:41.285Z,2.12
2022-12-15T06:02:08.969Z,2.62
2022-12-15T06:04:36.711Z,2.90
2022-12-15T06:07:04.488Z,2.10
2022-12-15T06:09:32.257Z,2.72
2022-12-15T06:11:59.903Z,3.15
2022-12-15T06:14:27.596Z,2.45
2022-12-15T06:16:55.325Z,2.70
2022-12-15T06:19:23.220Z,3.55
2022-12-15T06:21:50.966Z,2.75
2022-12-15T06:24:18.634Z,2.60
2022-12-15T06:26:46.554Z,2.95
2022-12-15T06:29:17.571Z,3.20
2022-12-15T06:31:45.631Z,3.00
2022-12-15T06:34:16.034Z,4.03
2022-12-15T06:36:44.041Z,3.33
2022-12-15T06:39:14.754Z,3.05
2022-12-15T06:41:43.520Z,3.53
2022-12-15T06:44:15.431Z,2.78
2022-12-15T06:46:43.962Z,5.45
2022-12-15T06:49:11.745Z,4.07
2022-12-15T06:51:39.854Z,2.87
2022-12-15T06:54:07.585Z,3.12
2022-12-15T06:56:40.020Z,3.92
2022-12-15T06:59:08.738Z,4.57
2022-12-15T07:01:37.025Z,3.85
2022-12-15T07:04:06.620Z,3.80
2022-12-15T07:06:38.452Z,3.50
2022-12-15T07:09:12.903Z,4.35
2022-12-15T07:11:41.614Z,2.85
2022-12-15T07:14:11.056Z,2.92
2022-12-15T07:16:38.791Z,3.37
2022-12-15T07:19:06.973Z,3.12
2022-12-15T07:21:34.683Z,3.10
2022-12-15T07:24:02.849Z,3.40
2022-12-15T07:26:31.571Z,2.90
2022-12-15T07:28:59.293Z,3.40
2022-12-15T07:31:26.962Z,3.87
2022-12-15T07:33:55.581Z,4.40
2022-12-15T07:36:23.279Z,4.93
2022-12-15T07:38:51.741Z,4.40
2022-12-15T07:41:20.974Z,3.95
2022-12-15T07:43:49.364Z,4.85
2022-12-15T07:46:18.823Z,5.03
2022-12-15T07:48:50.110Z,3.85
2022-12-15T07:51:19.961Z,6.68
2022-12-15T07:53:49.100Z,4.93
2022-12-15T07:56:16.955Z,4.50
2022-12-15T07:58:45.350Z,5.40
2022-12-15T08:01:14.862Z,5.28
2022-12-15T08:03:43.004Z,5.93
2022-12-15T08:06:13.351Z,4.65
2022-12-15T08:08:42.138Z,4.30
2022-12-15T08:11:12.136Z,6.25
2022-12-15T08:16:30.303Z,5.32
2022-12-15T08:19:00.808Z,4.95
2022-12-15T08:21:28.548Z,5.20
2022-12-15T08:23:56.277Z,4.32
2022-12-15T08:26:30.095Z,4.82
2022-12-15T08:29:17.266Z,6.37
2022-12-15T08:31:46.270Z,4.62
2022-12-15T08:34:13.982Z,4.50
2022-12-15T08:36:41.821Z,5.25
2022-12-15T08:39:09.558Z,5.15
2022-12-15T08:41:37.264Z,4.87
2022-12-15T08:44:05.172Z,4.53
2022-12-15T08:46:37.317Z,5.37
2022-12-15T08:49:05.612Z,4.80
2022-12-15T08:51:34.714Z,5.15
2022-12-15T08:54:03.369Z,5.45
2022-12-15T08:56:31.449Z,5.12
2022-12-15T08:59:02.200Z,5.53
2022-12-15T09:01:33.429Z,6.32
2022-12-15T09:04:02.309Z,5.30
2022-12-15T09:06:33.002Z,5.35
2022-12-15T09:09:03.701Z,5.90
2022-12-15T09:11:32.125Z,6.25
2022-12-15T09:13:59.925Z,6.50
2022-12-15T09:16:28.897Z,5.82
2022-12-15T09:18:59.559Z,6.62
2022-12-15T09:21:29.806Z,5.28
2022-12-15T09:24:01.555Z,7.45
2022-12-15T09:26:31.998Z,5.53
2022-12-15T09:29:00.003Z,6.20
2022-12-15T09:31:30.224Z,6.35
2022-12-15T09:34:01.511Z,6.55
2022-12-15T09:36:31.080Z,6.78
2022-12-15T09:38:59.684Z,6.40
2022-12-15T09:41:30.432Z,5.97
2022-12-15T09:44:08.289Z,5.82
2022-12-15T09:46:51.133Z,5.40
2022-12-15T09:49:31.046Z,6.53
2022-12-15T09:52:15.408Z,5.70
2022-12-15T09:54:44.848Z,7.15
2022-12-15T09:57:31.138Z,5.80
2022-12-15T10:00:12.608Z,5.70
2022-12-15T10:03:02.182Z,5.62
2022-12-15T10:06:25.951Z,7.28
2022-12-15T10:09:03.976Z,6.10
2022-12-15T10:12:14.483Z,6.50
2022-12-15T10:15:08.309Z,5.40
2022-12-15T10:17:57.780Z,8.13
2022-12-15T10:20:28.781Z,9.80
2022-12-15T10:23:01.178Z,8.38
2022-12-15T10:25:31.379Z,6.78
2022-12-15T10:28:23.163Z,7.03
2022-12-15T10:31:01.308Z,7.62
2022-12-15T10:36:17.242Z,9.65
2022-12-15T10:38:50.478Z,9.65
2022-12-15T10:41:27.512Z,8.70
2022-12-15T10:43:55.936Z,8.80
2022-12-15T10:46:26.094Z,7.72
2022-12-15T10:49:22.399Z,10.32
2022-12-15T10:51:57.220Z,8.95
2022-12-15T10:54:27.854Z,9.45
2022-12-15T10:56:57.725Z,7.07
2022-12-15T10:59:37.020Z,11.20
2022-12-15T11:02:25.669Z,8.27
2022-12-15T11:04:59.572Z,11.00
2022-12-15T11:07:36.404Z,7.78
2022-12-15T11:10:28.105Z,9.65
2022-12-15T11:13:22.574Z,9.48
2022-12-15T11:15:55.253Z,8.05
2022-12-15T11:18:41.546Z,9.85
2022-12-15T11:21:36.133Z,9.95
2022-12-15T11:24:30.599Z,11.10
2022-12-15T11:27:33.221Z,11.57
2022-12-15T11:30:17.996Z,9.68
2022-12-15T11:32:50.172Z,12.00
2022-12-15T11:35:26.459Z,12.15
2022-12-15T11:38:05.538Z,12.63
2022-12-15T11:40:40.904Z,10.35
2022-12-15T11:43:18.108Z,10.52
2022-12-15T11:46:21.647Z,10.32
2022-12-15T11:49:11.342Z,12.95
2022-12-15T11:51:47.781Z,11.82
2022-12-15T11:54:43.062Z,9.75
2022-12-15T11:57:44.375Z,11.20
2022-12-15T12:00:21.735Z,9.85
2022-12-15T12:02:58.141Z,9.48
2022-12-15T12:05:39.435Z,14.05
2022-12-15T12:08:29.207Z,12.40
2022-12-15T12:11:22.812Z,11.75
2022-12-15T12:14:12.162Z,11.77
2022-12-15T12:17:10.549Z,12.25
2022-12-15T12:19:53.337Z,12.07
2022-12-15T12:22:39.531Z,12.55
2022-12-15T12:25:27.034Z,13.30
2022-12-15T12:28:01.316Z,11.85
2022-12-15T12:30:39.878Z,12.80
2022-12-15T12:33:26.386Z,13.90
2022-12-15T12:36:05.179Z,12.10
2022-12-15T12:38:40.732Z,12.32
2022-12-15T12:41:25.262Z,12.50
2022-12-15T12:43:56.811Z,15.18
2022-12-15T12:46:50.808Z,14.38
2022-12-15T12:49:54.605Z,14.25
2022-12-15T12:52:38.189Z,14.25
2022-12-15T12:55:39.782Z,17.48
2022-12-15T12:58:34.417Z,16.37
2022-12-15T13:01:28.939Z,15.73
2022-12-15T13:04:13.034Z,14.95
2022-12-15T13:06:40.661Z,14.93
2022-12-15T13:09:20.433Z,15.73
2022-12-15T13:11:52.258Z,15.18
2022-12-15T13:14:26.425Z,15.65
2022-12-15T13:17:28.412Z,16.27
2022-12-15T13:20:02.386Z,19.98
2022-12-15T13:22:36.815Z,17.08
2022-12-15T13:25:29.190Z,18.17
2022-12-15T13:28:01.729Z,16.87
2022-12-15T13:30:29.462Z,19.35
2022-12-15T13:33:17.673Z,20.73
2022-12-15T13:35:45.873Z,17.85
2022-12-15T13:38:19.350Z,21.95
2022-12-15T13:40:57.872Z,21.65
2022-12-15T13:43:30.441Z,24.30
2022-12-15T13:46:10.640Z,26.67
2022-12-15T13:48:44.499Z,22.98
2022-12-15T13:51:34.725Z,24.70
2022-12-15T13:54:18.572Z,22.85
2022-12-15T13:57:02.565Z,23.73
2022-12-15T13:59:46.410Z,24.17
2022-12-15T14:02:37.894Z,23.58
2022-12-15T14:05:23.230Z,23.42
2022-12-15T14:07:58.640Z,28.10
2022-12-15T14:10:31.308Z,24.67
2022-12-15T14:13:02.098Z,23.02
2022-12-15T14:15:34.024Z,23.83
2022-12-15T14:18:03.211Z,23.20
2022-12-15T14:20:39.702Z,27.83
2022-12-15T14:23:25.039Z,25.02
2022-12-15T14:25:58.803Z,23.55
2022-12-15T14:28:48.172Z,22.08
2022-12-15T14:31:23.932Z,31.48
2022-12-15T14:34:04.322Z,24.83
2022-12-15T14:36:33.822Z,25.45
2022-12-15T14:39:05.720Z,21.83
2022-12-15T14:41:38.478Z,23.25
2022-12-15T14:44:36.823Z,23.38
2022-12-15T14:46:58.077Z,27.60
2022-12-15T14:49:32.803Z,25.15
2022-12-15T14:52:06.411Z,24.45
2022-12-15T14:54:50.459Z,23.62
2022-12-15T14:57:24.190Z,23.10
2022-12-15T14:59:54.149Z,22.83
2022-12-15T15:02:29.460Z,24.73
2022-12-15T15:05:04.913Z,23.50
2022-12-15T15:07:34.184Z,24.95
2022-12-15T15:10:21.541Z,21.30
2022-12-15T15:12:50.559Z,23.20
2022-12-15T15:15:21.854Z,25.15
2022-12-15T15:17:56.065Z,21.37
2022-12-15T15:20:33.185Z,27.77
2022-12-15T15:23:11.811Z,24.63
2022-12-15T15:25:41.324Z,24.33
2022-12-15T15:28:21.469Z,24.27
2022-12-15T15:30:51.946Z,24.95
2022-12-15T15:33:25.551Z,24.02
2022-12-15T15:36:04.101Z,25.12
2022-12-15T15:38:39.632Z,21.77
2022-12-15T15:41:17.311Z,25.40
2022-12-15T15:43:45.160Z,21.58
2022-12-15T15:46:15.735Z,26.65
2022-12-15T15:48:47.838Z,22.15
2022-12-15T15:51:15.696Z,25.15
2022-12-15T15:53:43.594Z,26.77
2022-12-15T15:56:13.423Z,26.77
2022-12-15T15:58:41.772Z,25.08
2022-12-15T16:01:13.116Z,25.37
2022-12-15T16:03:42.013Z,28.95
2022-12-15T16:06:21.772Z,32.70
2022-12-15T16:08:54.821Z,24.02
2022-12-15T16:11:27.761Z,28.62
2022-12-15T16:13:55.517Z,26.95
2022-12-15T16:16:25.311Z,29.58
2022-12-15T16:18:53.086Z,29.63
2022-12-15T16:21:23.193Z,32.20
2022-12-15T16:23:50.960Z,31.65
2022-12-15T16:26:30.513Z,34.78
2022-12-15T16:28:58.686Z,31.10
2022-12-15T16:31:37.339Z,27.65
2022-12-15T16:34:08.579Z,29.08
2022-12-15T16:36:36.368Z,26.58
2022-12-15T16:39:05.087Z,33.15
2022-12-15T16:41:32.874Z,27.08
2022-12-15T16:44:00.644Z,28.33
2022-12-15T16:46:28.418Z,29.52
2022-12-15T16:48:56.100Z,25.65
2022-12-15T16:51:35.316Z,27.55
2022-12-15T16:54:03.216Z,27.17
2022-12-15T16:56:30.868Z,28.35
2022-12-15T16:59:30.931Z,27.02
2022-12-15T17:01:46.468Z,29.10
2022-12-15T17:04:14.301Z,29.00
2022-12-15T17:06:42.068Z,26.23
2022-12-15T17:09:16.178Z,26.77
2022-12-15T17:11:43.904Z,35.20
2022-12-15T17:14:11.681Z,33.05
2022-12-15T17:16:39.471Z,29.95
2022-12-15T17:19:07.283Z,27.42
2022-12-15T17:21:38.212Z,29.10
2022-12-15T17:24:09.917Z,30.37
2022-12-15T17:26:38.600Z,28.80
2022-12-15T17:29:15.806Z,40.92
2022-12-15T17:31:43.550Z,34.22
2022-12-15T17:34:31.875Z,29.83
2022-12-15T17:37:01.834Z,29.85
2022-12-15T17:39:30.604Z,36.65
2022-12-15T17:42:00.641Z,31.62
2022-12-15T17:44:34.291Z,28.40
2022-12-15T17:47:03.098Z,31.67
2022-12-15T17:49:35.613Z,33.60
2022-12-15T17:52:08.989Z,29.27
2022-12-15T17:54:36.913Z,26.48
2022-12-15T17:57:04.920Z,27.00
2022-12-15T17:59:33.378Z,28.83
2022-12-15T18:02:01.318Z,30.02
2022-12-15T18:04:29.248Z,27.40
2022-12-15T18:07:01.684Z,25.52
2022-12-15T18:09:30.778Z,23.45
2022-12-15T18:11:58.805Z,27.40
2022-12-15T18:14:28.636Z,24.60
2022-12-15T18:16:56.567Z,35.00
2022-12-15T18:19:24.588Z,28.35
2022-12-15T18:21:52.323Z,28.48
2022-12-15T18:24:22.652Z,31.23
2022-12-15T18:26:50.595Z,26.80
2022-12-15T18:29:21.372Z,28.05
2022-12-15T18:31:50.462Z,28.15
2022-12-15T18:34:22.128Z,26.62
2022-12-15T18:36:51.442Z,23.55
2022-12-15T18:39:21.587Z,28.00
2022-12-15T18:41:49.814Z,27.45
2022-12-15T18:44:27.017Z,31.10
2022-12-15T18:46:55.624Z,28.75
2022-12-15T18:49:24.465Z,33.72
2022-12-15T18:51:52.612Z,30.92
2022-12-15T18:54:25.383Z,34.47
2022-12-15T18:56:53.168Z,34.67
2022-12-15T18:59:22.630Z,28.00
2022-12-15T19:01:50.517Z,30.98
2022-12-15T19:04:18.209Z,27.05
2022-12-15T19:06:46.220Z,27.83
2022-12-15T19:09:22.832Z,34.00
2022-12-15T19:12:20.872Z,26.48
2022-12-15T19:14:51.087Z,25.52
2022-12-15T19:17:40.524Z,35.38
2022-12-15T19:20:38.901Z,37.47
2022-12-15T19:23:07.769Z,34.03
2022-12-15T19:25:36.371Z,32.42
2022-12-15T19:28:04.108Z,30.88
2022-12-15T19:30:42.074Z,31.95
2022-12-15T19:33:11.436Z,37.33
2022-12-15T19:35:40.459Z,34.95
2022-12-15T19:38:09.617Z,28.15
2022-12-15T19:40:38.649Z,32.40
2022-12-15T19:43:06.777Z,30.37
2022-12-15T19:45:34.885Z,30.62
2022-12-15T19:48:02.767Z,30.15
2022-12-15T19:50:37.189Z,33.80
2022-12-15T19:53:11.996Z,31.73
2022-12-15T19:55:39.875Z,28.87
2022-12-15T19:58:30.648Z,28.15
2022-12-15T20:01:05.317Z,33.15
2022-12-15T20:03:33.952Z,38.00
2022-12-15T20:06:03.413Z,33.17
2022-12-15T20:08:35.742Z,27.25
2022-12-15T20:11:03.573Z,28.58
2022-12-15T20:13:32.079Z,26.27
2022-12-15T20:16:00.057Z,26.60
2022-12-15T20:18:27.741Z,26.17
2022-12-15T20:20:56.678Z,29.60
2022-12-15T20:23:27.417Z,29.73
2022-12-15T20:25:57.114Z,25.05
2022-12-15T20:28:30.775Z,29.15
2022-12-15T20:30:58.944Z,27.23
2022-12-15T20:33:26.769Z,26.30
2022-12-15T20:35:55.443Z,31.75
2022-12-15T20:38:34.427Z,25.73
2022-12-15T20:41:03.773Z,24.87
2022-12-15T20:43:33.300Z,22.98
2022-12-15T20:46:08.745Z,27.50
2022-12-15T20:48:37.828Z,25.52
2022-12-15T20:51:09.728Z,23.85
2022-12-15T20:53:38.957Z,31.17
2022-12-15T20:56:07.331Z,21.37
2022-12-15T20:58:41.090Z,21.52
2022-12-15T21:01:32.897Z,20.08
2022-12-15T21:04:03.278Z,21.42
2022-12-15T21:06:31.748Z,21.92
2022-12-15T21:08:59.459Z,24.00
2022-12-15T21:11:29.109Z,17.75
2022-12-15T21:13:59.943Z,22.45
2022-12-15T21:16:29.640Z,20.52
2022-12-15T21:19:26.945Z,25.33
2022-12-15T21:21:52.283Z,22.33
2022-12-15T21:24:26.095Z,18.33
2022-12-15T21:26:54.108Z,17.62
2022-12-15T21:29:25.501Z,20.20
2022-12-15T21:31:53.312Z,21.12
2022-12-15T21:34:21.040Z,14.77
2022-12-15T21:36:52.402Z,17.62
2022-12-15T21:39:26.147Z,21.05
2022-12-15T21:41:55.056Z,19.20
2022-12-15T21:44:23.004Z,20.00
2022-12-15T21:46:51.606Z,19.48
2022-12-15T21:49:19.783Z,19.90
2022-12-15T21:51:52.081Z,22.87
2022-12-15T21:54:28.799Z,26.87
2022-12-15T21:56:58.538Z,21.87
2022-12-15T21:59:32.998Z,19.33
2022-12-15T22:02:01.943Z,17.12
2022-12-15T22:04:33.737Z,26.45
2022-12-15T22:07:01.652Z,22.62
2022-12-15T22:09:29.713Z,20.20
2022-12-15T22:11:57.901Z,20.73
2022-12-15T22:14:30.987Z,26.73
2022-12-15T22:17:00.361Z,20.50
2022-12-15T22:19:28.308Z,23.23
2022-12-15T22:21:56.019Z,20.50
2022-12-15T22:24:23.942Z,16.23
2022-12-15T22:26:51.615Z,19.20
2022-12-15T22:29:22.641Z,20.50
2022-12-15T22:31:51.779Z,18.83
2022-12-15T22:34:24.474Z,15.43
2022-12-15T22:36:52.326Z,19.77
2022-12-15T22:39:20.547Z,16.83
2022-12-15T22:41:51.358Z,15.18
2022-12-15T22:44:28.542Z,21.73
2022-12-15T22:46:59.380Z,17.45
2022-12-15T22:49:35.834Z,23.10
2022-12-15T22:52:03.987Z,17.62
2022-12-15T22:54:33.265Z,18.98
2022-12-15T22:57:07.506Z,18.17
2022-12-15T22:59:42.793Z,21.98
2022-12-15T23:02:11.879Z,24.65
2022-12-15T23:04:39.575Z,16.75
2022-12-15T23:07:11.225Z,19.62
2022-12-15T23:09:39.568Z,17.30
2022-12-15T23:12:07.430Z,15.27
2022-12-15T23:14:53.637Z,20.75
2022-12-15T23:17:22.531Z,19.40
2022-12-15T23:19:50.229Z,19.48
2022-12-15T23:22:17.929Z,17.73
2022-12-15T23:24:45.586Z,16.45
2022-12-15T23:27:13.832Z,17.12
2022-12-15T23:29:41.668Z,16.17
2022-12-15T23:32:09.334Z,19.37
2022-12-15T23:34:37.023Z,15.45
2022-12-15T23:37:04.688Z,16.52
2022-12-15T23:39:32.669Z,17.65
2022-12-15T23:42:00.363Z,15.55
2022-12-15T23:44:28.114Z,13.55
2022-12-15T23:46:58.461Z,14.18
2022-12-15T23:49:26.165Z,17.10
2022-12-15T23:51:53.822Z,14.70
2022-12-15T23:54:22.827Z,17.20
2022-12-15T23:56:50.461Z,14.18
2022-12-15T23:59:19.443Z,13.73
